Time;durP1;ratioP1;P1;durP2;ratioP2;P2;SDS_P1;SDS_P2;PMS_P1;PMS_P2;Temp;Humidity;BMP_temperature;BMP_pressure;BME280_temperature;BME280_humidity;BME280_pressure;Samples;Min_cycle;Max_cycle;Signal;HPM_P1;HPM_P2
2022/06/13 00:01:48;;;;;;;0.00;0.00;;;18.30;99.90;;;;;;5045193;28;20313;-77
2022/06/13 00:04:16;;;;;;;0.00;0.00;;;;;;;;;;5045771;28;20203;-78
2022/06/13 00:06:46;;;;;;;0.00;0.00;;;;;;;;;;5042192;28;20233;-79
2022/06/13 00:09:15;;;;;;;0.00;0.00;;;;;;;;;;5048142;28;20298;-79
2022/06/13 00:11:43;;;;;;;0.00;0.00;;;;;;;;;;5050139;28;20214;-77
2022/06/13 00:14:11;;;;;;;0.00;0.00;;;;;;;;;;5045803;28;20210;-78
2022/06/13 00:16:38;;;;;;;0.00;0.00;;;;;;;;;;5045801;28;20294;-77
2022/06/13 00:19:05;;;;;;;0.00;0.00;;;18.00;99.90;;;;;;5048726;28;20206;-77
2022/06/13 00:21:37;;;;;;;0.00;0.00;;;17.90;99.90;;;;;;5048504;28;20233;-76
2022/06/13 00:24:07;;;;;;;0.00;0.00;;;17.90;99.90;;;;;;5042942;28;20205;-77
2022/06/13 00:26:38;;;;;;;0.00;0.00;;;17.80;99.90;;;;;;5045168;28;20203;-77
2022/06/13 00:29:05;;;;;;;0.00;0.00;;;17.80;99.90;;;;;;5046069;28;20274;-77
2022/06/13 00:31:32;;;;;;;0.00;0.00;;;17.80;99.90;;;;;;5044721;28;20250;-76
2022/06/13 00:33:59;;;;;;;0.00;0.00;;;17.70;99.90;;;;;;5046225;28;20223;-77
2022/06/13 00:36:27;;;;;;;0.00;0.00;;;;;;;;;;5044214;28;20210;-77
2022/06/13 00:38:55;;;;;;;0.00;0.00;;;;;;;;;;5043725;28;20245;-76
2022/06/13 00:41:25;;;;;;;0.00;0.00;;;17.60;99.90;;;;;;5060761;28;20214;-77
2022/06/13 00:43:55;;;;;;;0.00;0.00;;;17.60;99.90;;;;;;5045320;28;20202;-77
2022/06/13 00:46:26;;;;;;;0.00;0.00;;;17.70;99.90;;;;;;5042205;28;20290;-77
2022/06/13 00:48:59;;;;;;;0.00;0.00;;;17.50;99.90;;;;;;5063142;28;20206;-77
2022/06/13 00:51:27;;;;;;;0.00;0.00;;;17.50;99.90;;;;;;5041975;28;20279;-77
2022/06/13 00:53:55;;;;;;;0.00;0.00;;;17.40;99.90;;;;;;5036885;28;20195;-76
2022/06/13 00:56:27;;;;;;;0.00;0.00;;;17.40;99.90;;;;;;5042631;28;20747;-77
2022/06/13 00:59:00;;;;;;;0.00;0.00;;;17.40;99.90;;;;;;5042871;28;20203;-77
2022/06/13 01:01:29;;;;;;;0.00;0.00;;;17.30;99.90;;;;;;5043904;28;20349;-77
2022/06/13 01:03:58;;;;;;;0.00;0.00;;;17.20;99.90;;;;;;5044625;28;20297;-76
2022/06/13 01:06:27;;;;;;;0.00;0.00;;;17.20;99.90;;;;;;5044708;28;20199;-77
2022/06/13 01:08:54;;;;;;;0.00;0.00;;;17.10;99.90;;;;;;5048262;28;20234;-78
2022/06/13 01:11:23;;;;;;;0.00;0.00;;;17.20;99.90;;;;;;5043655;28;20229;-77
2022/06/13 01:14:06;;;;;;;0.00;0.00;;;17.10;99.90;;;;;;5048221;28;20198;-77
2022/06/13 01:16:40;;;;;;;0.00;0.00;;;16.90;99.90;;;;;;5044487;28;20203;-77
2022/06/13 01:19:51;;;;;;;0.00;0.00;;;17.00;99.90;;;;;;5046808;28;20205;-77
2022/06/13 01:22:51;;;;;;;0.00;0.00;;;17.00;99.90;;;;;;5035924;28;20253;-77
2022/06/13 01:25:39;;;;;;;0.00;0.00;;;16.90;99.90;;;;;;5042627;28;20286;-77
2022/06/13 01:28:27;;;;;;;0.00;0.00;;;16.90;99.90;;;;;;5042692;28;20260;-77
2022/06/13 01:31:14;;;;;;;0.00;0.00;;;16.80;99.90;;;;;;5047332;28;20233;-76
2022/06/13 01:33:55;;;;;;;0.00;0.00;;;16.80;99.90;;;;;;5042130;28;20262;-77
2022/06/13 01:36:31;;;;;;;0.00;0.00;;;;;;;;;;5040473;28;20292;-76
2022/06/13 01:39:09;;;;;;;0.00;0.00;;;;;;;;;;5047909;28;20217;-77
2022/06/13 01:41:38;;;;;;;0.00;0.00;;;;;;;;;;5047165;28;20264;-76
2022/06/13 01:44:09;;;;;;;0.00;0.00;;;;;;;;;;5044260;28;20256;-76
2022/06/13 01:46:39;;;;;;;0.00;0.00;;;;;;;;;;5041751;28;20579;-76
2022/06/13 01:49:13;;;;;;;0.00;0.00;;;;;;;;;;5045434;28;20219;-76
2022/06/13 01:51:44;;;;;;;0.00;0.00;;;;;;;;;;5042516;28;20210;-76
2022/06/13 01:54:16;;;;;;;0.00;0.00;;;;;;;;;;5044301;28;20206;-76
2022/06/13 01:56:48;;;;;;;0.00;0.00;;;;;;;;;;5041769;28;20206;-76
2022/06/13 01:59:18;;;;;;;0.00;0.00;;;;;;;;;;5039619;28;20260;-76
2022/06/13 02:01:51;;;;;;;0.00;0.00;;;16.70;99.90;;;;;;5047265;28;20222;-76
2022/06/13 02:04:22;;;;;;;0.00;0.00;;;16.50;99.90;;;;;;5041627;28;20203;-77
2022/06/13 02:06:57;;;;;;;0.00;0.00;;;16.50;99.90;;;;;;5057872;28;20297;-76
2022/06/13 02:09:28;;;;;;;0.00;0.00;;;16.50;99.90;;;;;;5048611;28;20202;-76
2022/06/13 02:11:56;;;;;;;0.00;0.00;;;16.40;99.90;;;;;;5041790;28;20559;-77
2022/06/13 02:14:36;;;;;;;0.00;0.00;;;16.40;99.90;;;;;;5045394;28;20194;-76
2022/06/13 02:17:11;;;;;;;0.00;0.00;;;16.40;99.90;;;;;;5057231;28;20244;-76
2022/06/13 02:19:43;;;;;;;0.00;0.00;;;16.40;99.90;;;;;;5045750;28;20202;-80
2022/06/13 02:22:13;;;;;;;0.00;0.00;;;16.40;99.90;;;;;;5048836;28;20245;-78
2022/06/13 02:24:47;;;;;;;0.00;0.00;;;16.40;99.90;;;;;;5045125;28;20210;-79
2022/06/13 02:27:16;;;;;;;0.07;0.07;;;16.40;99.90;;;;;;5060134;28;20226;-77
2022/06/13 02:29:48;;;;;;;0.00;0.00;;;16.40;99.90;;;;;;5041863;28;20198;-78
2022/06/13 02:32:23;;;;;;;0.00;0.00;;;16.40;99.90;;;;;;5047923;28;20214;-78
2022/06/13 02:34:54;;;;;;;0.00;0.00;;;16.40;99.90;;;;;;5045696;28;20220;-77
2022/06/13 02:37:27;;;;;;;0.00;0.00;;;16.40;99.90;;;;;;5049003;28;20210;-77
2022/06/13 02:39:57;;;;;;;0.00;0.00;;;;;;;;;;5045254;28;20256;-77
2022/06/13 02:42:27;;;;;;;0.00;0.00;;;;;;;;;;5062556;28;20222;-77
2022/06/13 02:44:58;;;;;;;0.00;0.00;;;;;;;;;;5063164;28;20736;-77
2022/06/13 02:47:30;;;;;;;0.00;0.00;;;;;;;;;;5065250;28;20202;-76
2022/06/13 02:49:58;;;;;;;0.00;0.00;;;;;;;;;;5063660;28;20210;-76
2022/06/13 02:52:28;;;;;;;0.00;0.00;;;;;;;;;;5047686;28;20260;-76
2022/06/13 02:54:56;;;;;;;0.10;0.10;;;;;;;;;;5064803;28;20191;-77
2022/06/13 02:57:31;;;;;;;0.00;0.00;;;;;;;;;;5045070;28;20199;-77
2022/06/13 03:00:14;;;;;;;0.00;0.00;;;;;;;;;;5040718;28;20221;-77
2022/06/13 03:02:53;;;;;;;0.00;0.00;;;16.30;99.90;;;;;;5042333;28;20244;-77
2022/06/13 03:05:38;;;;;;;0.00;0.00;;;16.10;99.90;;;;;;5046513;28;20237;-76
2022/06/13 03:08:16;;;;;;;0.00;0.00;;;16.10;99.90;;;;;;5046899;28;20207;-77
2022/06/13 03:10:49;;;;;;;0.10;0.10;;;16.20;99.90;;;;;;5061534;28;20202;-76
2022/06/13 03:13:26;;;;;;;0.00;0.00;;;16.20;99.90;;;;;;5049610;28;20228;-76
2022/06/13 03:16:02;;;;;;;0.00;0.00;;;16.20;99.90;;;;;;5048954;28;20226;-76
2022/06/13 03:18:37;;;;;;;0.00;0.00;;;16.20;99.90;;;;;;5046139;28;20202;-76
2022/06/13 03:21:09;;;;;;;0.00;0.00;;;16.20;99.90;;;;;;5043237;28;20268;-76
2022/06/13 03:23:40;;;;;;;0.00;0.00;;;;;;;;;;5064562;28;20246;-76
2022/06/13 03:26:11;;;;;;;0.00;0.00;;;16.10;99.90;;;;;;5041468;28;20246;-76
2022/06/13 03:28:45;;;;;;;0.00;0.00;;;16.00;99.90;;;;;;5043479;28;20205;-76
2022/06/13 03:31:16;;;;;;;0.00;0.00;;;16.00;99.90;;;;;;5048854;28;20226;-76
2022/06/13 03:33:48;;;;;;;0.00;0.00;;;16.00;99.90;;;;;;5047777;28;20217;-76
2022/06/13 03:36:20;;;;;;;0.00;0.00;;;16.00;99.90;;;;;;5048445;28;20226;-76
2022/06/13 03:38:54;;;;;;;0.00;0.00;;;16.00;99.90;;;;;;5042779;28;20206;-77
2022/06/13 03:41:26;;;;;;;0.00;0.00;;;16.00;99.90;;;;;;5061631;28;20222;-76
2022/06/13 03:43:55;;;;;;;0.00;0.00;;;16.00;99.90;;;;;;5048003;28;20307;-76
2022/06/13 03:46:27;;;;;;;0.00;0.00;;;16.00;99.90;;;;;;5043464;28;20252;-76
2022/06/13 03:49:00;;;;;;;0.00;0.00;;;16.00;99.90;;;;;;5047524;28;20203;-76
2022/06/13 03:51:30;;;;;;;0.10;0.10;;;16.00;99.90;;;;;;5044016;28;20218;-76
2022/06/13 03:54:01;;;;;;;0.00;0.00;;;16.00;99.90;;;;;;5036056;28;20285;-77
2022/06/13 03:56:35;;;;;;;0.00;0.00;;;16.00;99.90;;;;;;5065298;28;20190;-76
2022/06/13 03:59:09;;;;;;;0.00;0.00;;;16.00;99.90;;;;;;5059128;28;20221;-76
2022/06/13 04:01:39;;;;;;;0.00;0.00;;;16.00;99.90;;;;;;5064336;28;20222;-78
2022/06/13 04:04:16;;;;;;;0.00;0.00;;;16.10;99.90;;;;;;5049421;28;20233;-76
2022/06/13 04:06:43;;;;;;;0.00;0.00;;;16.10;99.90;;;;;;5048576;28;20205;-76
2022/06/13 04:09:14;;;;;;;0.00;0.00;;;16.10;99.90;;;;;;5063140;28;20230;-76
2022/06/13 04:11:53;;;;;;;0.00;0.00;;;16.20;99.90;;;;;;5043336;28;20230;-76
2022/06/13 04:14:36;;;;;;;0.00;0.00;;;16.20;99.90;;;;;;5063892;28;20203;-76
2022/06/13 04:17:12;;;;;;;0.00;0.00;;;16.20;99.90;;;;;;5042357;28;20252;-77
2022/06/13 04:19:51;;;;;;;0.00;0.00;;;16.20;99.90;;;;;;5046558;28;20224;-76
2022/06/13 04:22:23;;;;;;;0.00;0.00;;;16.20;99.90;;;;;;5043802;28;20318;-76
2022/06/13 04:24:59;;;;;;;0.00;0.00;;;16.20;99.90;;;;;;5053392;28;20304;-76
2022/06/13 04:27:32;;;;;;;0.10;0.10;;;16.40;99.90;;;;;;5043126;28;20218;-76
2022/06/13 04:30:09;;;;;;;0.00;0.00;;;16.50;99.90;;;;;;5062110;28;20270;-76
2022/06/13 04:32:48;;;;;;;0.00;0.00;;;16.60;99.90;;;;;;5038225;28;20214;-76
2022/06/13 04:35:18;;;;;;;0.00;0.00;;;16.70;99.90;;;;;;5065911;28;20329;-77
2022/06/13 04:37:46;;;;;;;0.00;0.00;;;16.90;99.90;;;;;;5044308;28;20310;-78
2022/06/13 04:40:17;;;;;;;0.00;0.00;;;17.10;99.90;;;;;;5062666;28;20198;-77
2022/06/13 04:42:46;;;;;;;0.00;0.00;;;17.40;99.90;;;;;;5040267;28;20214;-77
2022/06/13 04:45:23;;;;;;;0.00;0.00;;;17.60;99.90;;;;;;5058913;28;20290;-78
2022/06/13 04:47:51;;;;;;;0.00;0.00;;;17.70;99.90;;;;;;5035984;28;20252;-76
2022/06/13 04:50:26;;;;;;;0.00;0.00;;;17.90;99.90;;;;;;5056525;28;20206;-77
2022/06/13 04:52:55;;;;;;;0.00;0.00;;;18.00;99.90;;;;;;5041965;28;20221;-78
2022/06/13 04:55:27;;;;;;;0.00;0.00;;;18.20;99.90;;;;;;5038170;28;20210;-77
2022/06/13 04:57:54;;;;;;;0.00;0.00;;;18.10;99.90;;;;;;5038236;28;20241;-77
2022/06/13 05:00:22;;;;;;;0.00;0.00;;;18.10;99.90;;;;;;5059414;28;20202;-77
2022/06/13 05:02:54;;;;;;;0.00;0.00;;;18.00;99.90;;;;;;5057316;28;20318;-77
2022/06/13 05:05:37;;;;;;;0.00;0.00;;;17.90;99.90;;;;;;5063589;28;20201;-77
2022/06/13 05:08:12;;;;;;;0.00;0.00;;;17.80;99.90;;;;;;5061295;28;20202;-77
2022/06/13 05:10:42;;;;;;;0.00;0.00;;;17.60;99.90;;;;;;5042655;28;20252;-77
2022/06/13 05:13:09;;;;;;;0.00;0.00;;;17.50;99.90;;;;;;5044255;28;20203;-76
2022/06/13 05:15:37;;;;;;;0.00;0.00;;;17.40;99.90;;;;;;5041708;28;20293;-77
2022/06/13 05:18:29;;;;;;;0.00;0.00;;;17.30;99.90;;;;;;5040917;28;20281;-77
2022/06/13 05:21:10;;;;;;;0.00;0.00;;;17.10;99.90;;;;;;5056088;28;20294;-78
2022/06/13 05:23:48;;;;;;;0.00;0.00;;;17.10;99.90;;;;;;5044234;28;20218;-77
2022/06/13 05:26:15;;;;;;;0.00;0.00;;;17.00;99.90;;;;;;5041733;28;20196;-78
2022/06/13 05:28:42;;;;;;;0.00;0.00;;;17.00;99.90;;;;;;5044238;28;20202;-77
2022/06/13 05:31:16;;;;;;;0.00;0.00;;;17.00;99.90;;;;;;5047667;28;20222;-77
2022/06/13 05:33:44;;;;;;;0.00;0.00;;;17.00;99.90;;;;;;5041545;28;20198;-77
2022/06/13 05:36:22;;;;;;;0.00;0.00;;;17.00;99.90;;;;;;5061760;28;20198;-77
2022/06/13 05:38:53;;;;;;;0.00;0.00;;;16.90;99.90;;;;;;5042768;28;20280;-77
2022/06/13 05:41:20;;;;;;;0.00;0.00;;;17.00;99.90;;;;;;5047848;28;20222;-77
2022/06/13 05:43:47;;;;;;;0.03;0.03;;;17.00;99.90;;;;;;5063253;28;20222;-78
2022/06/13 05:46:18;;;;;;;0.00;0.00;;;17.10;99.90;;;;;;5061369;28;20294;-77
2022/06/13 05:48:45;;;;;;;0.00;0.00;;;17.40;99.90;;;;;;5048120;28;20208;-77
2022/06/13 05:51:14;;;;;;;0.00;0.00;;;17.70;99.90;;;;;;5067621;28;20246;-79
2022/06/13 05:53:41;;;;;;;0.00;0.00;;;17.80;99.90;;;;;;5048914;28;20195;-80
2022/06/13 05:56:11;;;;;;;0.00;0.00;;;18.00;99.90;;;;;;5062166;28;20195;-78
2022/06/13 05:58:38;;;;;;;0.00;0.00;;;18.10;99.90;;;;;;5066235;28;20285;-79
2022/06/13 06:01:06;;;;;;;0.00;0.00;;;18.20;99.90;;;;;;5045051;28;20299;-76
2022/06/13 06:03:33;;;;;;;0.00;0.00;;;18.20;99.90;;;;;;5063935;28;20230;-75
2022/06/13 06:06:02;;;;;;;0.00;0.00;;;18.30;99.90;;;;;;5058040;28;20199;-75
2022/06/13 06:08:35;;;;;;;0.00;0.00;;;18.40;99.90;;;;;;5041538;28;20206;-76
2022/06/13 06:11:02;;;;;;;0.00;0.00;;;18.50;99.90;;;;;;5034180;28;20673;-76
2022/06/13 06:13:31;;;;;;;0.00;0.00;;;18.50;99.90;;;;;;5044116;28;20190;-76
2022/06/13 06:16:00;;;;;;;0.00;0.00;;;18.40;99.90;;;;;;5041838;28;20202;-76
2022/06/13 06:18:29;;;;;;;0.00;0.00;;;18.30;99.90;;;;;;5063982;28;20202;-76
2022/06/13 06:20:57;;;;;;;0.00;0.00;;;18.20;99.90;;;;;;5043038;28;20207;-76
2022/06/13 06:23:24;;;;;;;0.00;0.00;;;18.00;99.90;;;;;;5063080;28;20289;-76
2022/06/13 06:25:52;;;;;;;0.00;0.00;;;17.90;99.90;;;;;;5061646;28;20272;-75
2022/06/13 06:28:23;;;;;;;0.00;0.00;;;17.90;99.90;;;;;;5062481;28;20281;-75
2022/06/13 06:30:53;;;;;;;0.00;0.00;;;17.90;99.90;;;;;;5042205;28;20202;-76
2022/06/13 06:33:20;;;;;;;0.00;0.00;;;17.90;99.90;;;;;;5058154;28;20643;-76
2022/06/13 06:35:48;;;;;;;0.00;0.00;;;17.80;99.90;;;;;;5045208;28;20199;-77
2022/06/13 06:38:16;;;;;;;0.00;0.00;;;17.80;99.90;;;;;;5033827;28;20203;-76
2022/06/13 06:40:43;;;;;;;0.00;0.00;;;17.80;99.90;;;;;;5045858;28;20301;-76
2022/06/13 06:43:12;;;;;;;0.00;0.00;;;17.80;99.90;;;;;;5041989;28;20215;-76
2022/06/13 06:45:41;;;;;;;0.00;0.00;;;17.90;99.90;;;;;;5038924;28;20318;-76
2022/06/13 06:48:13;;;;;;;0.00;0.00;;;17.90;99.90;;;;;;5042853;28;20209;-77
2022/06/13 06:50:43;;;;;;;0.00;0.00;;;18.00;99.90;;;;;;5043400;28;20198;-76
2022/06/13 06:53:12;;;;;;;0.00;0.00;;;18.20;99.90;;;;;;5035198;28;20290;-76
2022/06/13 07:01:14;;;;;;;0.00;0.00;;;18.90;99.90;;;;;;5041080;28;20226;-74
2022/06/13 07:03:42;;;;;;;0.00;0.00;;;19.10;99.90;;;;;;5042533;28;20222;-75
2022/06/13 07:06:09;;;;;;;0.00;0.00;;;19.40;99.90;;;;;;5039897;28;20569;-75
2022/06/13 07:08:37;;;;;;;0.00;0.00;;;19.60;99.90;;;;;;5049780;28;20198;-75
2022/06/13 07:13:52;;;;;;;0.00;0.00;;;19.60;99.90;;;;;;5044025;28;20195;-75
2022/06/13 07:16:19;;;;;;;0.00;0.00;;;19.80;99.90;;;;;;5045665;28;20248;-75
2022/06/13 07:18:46;;;;;;;0.00;0.00;;;19.90;99.90;;;;;;5045738;28;20230;-76
2022/06/13 07:21:14;;;;;;;0.00;0.00;;;20.00;99.90;;;;;;5050251;28;20230;-74
2022/06/13 07:23:41;;;;;;;0.00;0.00;;;20.20;99.90;;;;;;5064318;28;20742;-75
2022/06/13 07:26:10;;;;;;;0.00;0.00;;;20.30;99.90;;;;;;5042498;28;20211;-74
2022/06/13 07:28:36;;;;;;;0.00;0.00;;;20.40;99.90;;;;;;5048823;28;20195;-74
2022/06/13 07:31:05;;;;;;;0.00;0.00;;;20.70;99.90;;;;;;5049808;28;20218;-76
2022/06/13 07:33:32;;;;;;;0.00;0.00;;;20.50;99.90;;;;;;5047772;28;20205;-75
2022/06/13 07:35:59;;;;;;;0.00;0.00;;;20.50;99.90;;;;;;5049343;28;20198;-76
2022/06/13 07:38:25;;;;;;;0.00;0.00;;;20.40;99.90;;;;;;5043393;28;20195;-74
2022/06/13 07:40:58;;;;;;;0.00;0.00;;;20.20;99.90;;;;;;5059618;28;20203;-76
2022/06/13 07:43:29;;;;;;;0.00;0.00;;;20.10;99.90;;;;;;5039749;28;20219;-75
2022/06/13 07:45:59;;;;;;;0.00;0.00;;;20.00;99.90;;;;;;5043675;28;20199;-76
2022/06/13 07:48:28;;;;;;;0.00;0.00;;;19.90;99.90;;;;;;5043659;28;20221;-76
2022/06/13 07:50:56;;;;;;;0.00;0.00;;;19.90;99.90;;;;;;5047636;28;20301;-74
2022/06/13 07:53:23;;;;;;;0.00;0.00;;;19.70;99.90;;;;;;5065116;28;20201;-74
2022/06/13 07:55:51;;;;;;;0.00;0.00;;;19.70;99.90;;;;;;5044665;28;20317;-76
2022/06/13 07:58:20;;;;;;;0.00;0.00;;;19.60;99.90;;;;;;5064054;28;20226;-74
2022/06/13 08:00:49;;;;;;;0.00;0.00;;;19.60;99.90;;;;;;5067319;28;20276;-74
2022/06/13 08:03:18;;;;;;;0.00;0.00;;;19.60;99.90;;;;;;5044466;28;20210;-75
2022/06/13 08:05:47;;;;;;;0.00;0.00;;;19.60;99.90;;;;;;5044905;28;20204;-72
2022/06/13 08:08:14;;;;;;;0.00;0.00;;;19.60;99.90;;;;;;5047756;28;20233;-78
2022/06/13 08:10:41;;;;;;;0.00;0.00;;;19.50;99.90;;;;;;5062392;28;20195;-75
2022/06/13 08:13:11;;;;;;;0.00;0.00;;;19.30;99.90;;;;;;5037444;28;20210;-73
2022/06/13 08:15:38;;;;;;;0.00;0.00;;;19.30;99.90;;;;;;5046012;28;20202;-75
2022/06/13 08:18:05;;;;;;;0.00;0.00;;;19.30;99.90;;;;;;5044434;28;20328;-74
2022/06/13 08:20:33;;;;;;;0.00;0.00;;;19.40;99.90;;;;;;5065550;28;20297;-74
2022/06/13 08:23:15;;;;;;;0.00;0.00;;;19.50;99.90;;;;;;5030625;28;20226;-73
2022/06/13 08:25:46;;;;;;;0.00;0.00;;;19.50;99.90;;;;;;5038078;28;20199;-75
2022/06/13 08:28:14;;;;;;;0.00;0.00;;;19.30;99.90;;;;;;5062405;28;20206;-74
2022/06/13 08:30:46;;;;;;;0.00;0.00;;;19.40;99.90;;;;;;5064126;28;20194;-74
2022/06/13 08:33:14;;;;;;;0.00;0.00;;;19.40;99.90;;;;;;5059605;28;20244;-75
2022/06/13 08:35:42;;;;;;;0.00;0.00;;;19.60;99.90;;;;;;5041887;28;20241;-75
2022/06/13 08:38:13;;;;;;;0.00;0.00;;;19.70;99.90;;;;;;5047118;28;20199;-75
2022/06/13 08:40:50;;;;;;;0.00;0.00;;;19.60;99.90;;;;;;5047857;28;20280;-74
2022/06/13 08:43:44;;;;;;;0.00;0.00;;;19.70;99.90;;;;;;5045323;28;20217;-73
2022/06/13 08:46:18;;;;;;;0.00;0.00;;;19.70;99.90;;;;;;5056234;28;20228;-73
2022/06/13 08:48:46;;;;;;;0.00;0.00;;;19.80;99.90;;;;;;5039128;28;20202;-74
2022/06/13 08:51:15;;;;;;;0.00;0.00;;;19.70;99.90;;;;;;5061540;28;20222;-73
2022/06/13 08:53:52;;;;;;;0.00;0.00;;;19.60;99.90;;;;;;5054538;28;20199;-75
2022/06/13 08:56:22;;;;;;;0.00;0.00;;;19.50;99.90;;;;;;5043106;28;20206;-74
2022/06/13 08:58:53;;;;;;;0.00;0.00;;;19.60;99.90;;;;;;5044766;28;20252;-74
2022/06/13 09:01:25;;;;;;;0.00;0.00;;;20.00;99.90;;;;;;5063492;28;20280;-74
2022/06/13 09:03:57;;;;;;;0.00;0.00;;;20.30;99.90;;;;;;5045642;28;20218;-75
2022/06/13 09:06:30;;;;;;;0.00;0.00;;;20.40;99.90;;;;;;5039654;28;20194;-75
2022/06/13 09:09:05;;;;;;;0.00;0.00;;;20.50;99.90;;;;;;5044207;28;20268;-74
2022/06/13 09:11:36;;;;;;;0.00;0.00;;;20.60;99.90;;;;;;5041330;28;20233;-74
2022/06/13 09:14:09;;;;;;;0.00;0.00;;;20.70;99.90;;;;;;5042223;28;20198;-74
2022/06/13 09:16:39;;;;;;;0.00;0.00;;;20.70;99.90;;;;;;5043050;28;20217;-74
2022/06/13 09:19:14;;;;;;;0.00;0.00;;;20.90;99.90;;;;;;5041139;28;20281;-74
2022/06/13 09:21:46;;;;;;;0.00;0.00;;;21.10;99.90;;;;;;5043794;28;20250;-74
2022/06/13 09:24:23;;;;;;;0.00;0.00;;;21.30;99.90;;;;;;5041789;28;20692;-75
2022/06/13 09:26:53;;;;;;;0.00;0.00;;;21.30;99.90;;;;;;5047129;28;20271;-74
2022/06/13 09:29:27;;;;;;;0.00;0.00;;;21.20;99.90;;;;;;5065389;28;20209;-75
2022/06/13 09:31:59;;;;;;;0.00;0.00;;;21.30;99.90;;;;;;5061160;28;20222;-74
2022/06/13 09:34:35;;;;;;;0.00;0.00;;;21.20;99.90;;;;;;5046548;28;20247;-74
2022/06/13 09:37:09;;;;;;;0.00;0.00;;;21.20;99.90;;;;;;5046723;28;20297;-75
2022/06/13 09:39:38;;;;;;;0.00;0.00;;;21.40;99.90;;;;;;5065105;28;20203;-75
2022/06/13 09:42:26;;;;;;;0.00;0.00;;;21.50;99.90;;;;;;5044409;28;20361;-75
2022/06/13 09:45:07;;;;;;;0.00;0.00;;;21.80;99.90;;;;;;5041742;28;20595;-74
2022/06/13 09:47:45;;;;;;;0.00;0.00;;;22.00;99.90;;;;;;5046859;28;20199;-75
2022/06/13 09:50:17;;;;;;;0.00;0.00;;;;;;;;;;5047600;28;20205;-74
2022/06/13 09:52:49;;;;;;;0.00;0.00;;;;;;;;;;5047214;28;20206;-74
2022/06/13 09:55:21;;;;;;;0.00;0.00;;;;;;;;;;5048226;28;20207;-74
2022/06/13 09:57:55;;;;;;;0.00;0.00;;;;;;;;;;5047038;28;20199;-74
2022/06/13 10:00:24;;;;;;;0.00;0.00;;;;;;;;;;5044129;28;20261;-75
2022/06/13 10:03:02;;;;;;;0.00;0.00;;;;;;;;;;5064273;28;20222;-75
2022/06/13 10:05:39;;;;;;;0.00;0.00;;;;;;;;;;5044154;28;20214;-75
2022/06/13 10:08:25;;;;;;;0.00;0.00;;;;;;;;;;5046855;28;20206;-75
2022/06/13 10:10:57;;;;;;;0.00;0.00;;;;;;;;;;5041766;28;20195;-74
2022/06/13 10:13:31;;;;;;;0.00;0.00;;;;;;;;;;5060213;28;20195;-75
2022/06/13 10:16:04;;;;;;;0.00;0.00;;;;;;;;;;5047003;28;20286;-74
2022/06/13 10:18:42;;;;;;;0.00;0.00;;;;;;;;;;5064480;28;20198;-75
2022/06/13 10:21:14;;;;;;;0.00;0.00;;;;;;;;;;5040646;28;20227;-74
2022/06/13 10:23:48;;;;;;;0.00;0.00;;;22.30;99.90;;;;;;5032014;28;20291;-75
2022/06/13 10:26:25;;;;;;;0.00;0.00;;;22.40;99.90;;;;;;5043800;28;20221;-75
2022/06/13 10:29:01;;;;;;;0.00;0.00;;;;;;;;;;5042844;28;20206;-76
2022/06/13 10:31:36;;;;;;;0.00;0.00;;;;;;;;;;5045030;28;20242;-75
2022/06/13 10:34:09;;;;;;;0.00;0.00;;;;;;;;;;5043494;28;20205;-74
2022/06/13 10:36:39;;;;;;;0.00;0.00;;;;;;;;;;5057578;28;20270;-74
2022/06/13 10:39:08;;;;;;;0.00;0.00;;;;;;;;;;5052551;28;20211;-75
2022/06/13 10:41:38;;;;;;;0.00;0.00;;;;;;;;;;5050056;28;20308;-73
2022/06/13 10:44:09;;;;;;;0.00;0.00;;;;;;;;;;5044668;28;20214;-74
2022/06/13 10:46:36;;;;;;;0.00;0.00;;;;;;;;;;5042698;28;20248;-74
2022/06/13 10:49:06;;;;;;;0.00;0.00;;;;;;;;;;5063035;28;20202;-75
2022/06/13 10:51:33;;;;;;;0.00;0.00;;;;;;;;;;5045269;28;20321;-74
2022/06/13 10:54:05;;;;;;;0.00;0.00;;;;;;;;;;5057621;28;20219;-75
2022/06/13 10:56:36;;;;;;;0.00;0.00;;;;;;;;;;5046340;28;20213;-75
2022/06/13 10:59:05;;;;;;;0.00;0.00;;;;;;;;;;5041531;28;20206;-75
2022/06/13 11:01:32;;;;;;;0.00;0.00;;;;;;;;;;5042616;28;20234;-75
2022/06/13 11:04:01;;;;;;;0.00;0.00;;;;;;;;;;5042882;28;20230;-76
2022/06/13 11:06:33;;;;;;;0.00;0.00;;;;;;;;;;5047027;28;20198;-75
2022/06/13 11:09:01;;;;;;;0.00;0.00;;;;;;;;;;5047723;28;20226;-74
2022/06/13 11:11:33;;;;;;;0.00;0.00;;;;;;;;;;5043429;28;20245;-76
2022/06/13 11:14:00;;;;;;;0.00;0.00;;;;;;;;;;5048916;28;20279;-75
2022/06/13 11:24:49;;;;;;;0.00;0.00;;;;;;;;;;5044662;28;20214;-75
2022/06/13 11:30:24;;;;;;;0.00;0.00;;;;;;;;;;5067004;28;20191;-75
2022/06/13 11:33:01;;;;;;;0.00;0.00;;;;;;;;;;5042796;28;20780;-75
2022/06/13 11:35:32;;;;;;;0.00;0.00;;;;;;;;;;5059081;28;20281;-76
2022/06/13 11:38:17;;;;;;;0.00;0.00;;;;;;;;;;5044783;28;20199;-75
2022/06/13 11:40:45;;;;;;;0.00;0.00;;;;;;;;;;5041290;28;20213;-75
2022/06/13 11:43:23;;;;;;;0.00;0.00;;;;;;;;;;5047544;28;20206;-75
2022/06/13 11:45:57;;;;;;;0.00;0.00;;;;;;;;;;5040387;28;20318;-77
2022/06/13 11:48:26;;;;;;;0.00;0.00;;;;;;;;;;5041348;28;20663;-76
2022/06/13 11:50:54;;;;;;;0.00;0.00;;;;;;;;;;5042873;28;20211;-76
2022/06/13 11:53:38;;;;;;;0.00;0.00;;;;;;;;;;5056068;28;20208;-78
2022/06/13 11:56:10;;;;;;;0.00;0.00;;;;;;;;;;5046534;28;20202;-77
2022/06/13 11:58:41;;;;;;;0.00;0.00;;;;;;;;;;5064755;28;20240;-78
2022/06/13 12:01:21;;;;;;;0.00;0.00;;;;;;;;;;5047168;28;20258;-78
2022/06/13 12:03:58;;;;;;;0.00;0.00;;;;;;;;;;5046410;28;20195;-77
2022/06/13 12:06:26;;;;;;;0.00;0.00;;;;;;;;;;5042453;28;20245;-77
2022/06/13 12:09:03;;;;;;;0.00;0.00;;;;;;;;;;5048555;28;20230;-79
2022/06/13 12:11:30;;;;;;;0.00;0.00;;;;;;;;;;5048369;28;20225;-79
2022/06/13 12:13:59;;;;;;;0.00;0.00;;;;;;;;;;5065239;28;20194;-79
2022/06/13 12:16:37;;;;;;;0.00;0.00;;;;;;;;;;5042991;28;20206;-76
2022/06/13 12:19:11;;;;;;;0.00;0.00;;;;;;;;;;5039707;28;20296;-76
2022/06/13 12:21:45;;;;;;;0.00;0.00;;;;;;;;;;5040768;28;20217;-77
2022/06/13 12:24:18;;;;;;;0.00;0.00;;;;;;;;;;5034865;28;20314;-77
2022/06/13 12:26:48;;;;;;;0.00;0.00;;;;;;;;;;5042115;28;20322;-77
2022/06/13 12:29:23;;;;;;;0.00;0.00;;;;;;;;;;5038534;28;20219;-76
2022/06/13 12:31:54;;;;;;;0.00;0.00;;;;;;;;;;5046072;28;20232;-77
2022/06/13 12:34:26;;;;;;;0.00;0.00;;;;;;;;;;5041297;28;20213;-77
2022/06/13 12:36:58;;;;;;;0.00;0.00;;;;;;;;;;5061242;28;20203;-75
2022/06/13 12:39:40;;;;;;;0.00;0.00;;;;;;;;;;5060138;28;20190;-77
2022/06/13 12:42:15;;;;;;;0.00;0.00;;;;;;;;;;5041669;28;20797;-74
2022/06/13 12:44:49;;;;;;;0.00;0.00;;;;;;;;;;5041379;28;20284;-75
2022/06/13 12:47:23;;;;;;;0.00;0.00;;;;;;;;;;5043702;28;20765;-75
2022/06/13 12:49:58;;;;;;;0.00;0.00;;;;;;;;;;5041878;28;20194;-79
2022/06/13 12:52:36;;;;;;;0.00;0.00;;;;;;;;;;5046576;28;20650;-75
2022/06/13 12:55:06;;;;;;;0.00;0.00;;;;;;;;;;5045218;28;20195;-76
2022/06/13 12:57:44;;;;;;;0.00;0.00;;;;;;;;;;5044413;28;20347;-76
2022/06/13 13:00:15;;;;;;;0.00;0.00;;;;;;;;;;5062742;28;20248;-75
2022/06/13 13:02:55;;;;;;;0.00;0.00;;;;;;;;;;5039338;28;20790;-76
2022/06/13 13:05:28;;;;;;;0.00;0.00;;;;;;;;;;5040201;28;20222;-75
2022/06/13 13:08:04;;;;;;;0.00;0.00;;;;;;;;;;5043213;28;20290;-75
2022/06/13 13:10:35;;;;;;;0.00;0.00;;;;;;;;;;5040599;28;20233;-74
2022/06/13 13:13:20;;;;;;;0.00;0.00;;;;;;;;;;5043566;28;20226;-74
2022/06/13 13:15:52;;;;;;;0.00;0.00;;;;;;;;;;5045172;28;20198;-76
2022/06/13 13:18:23;;;;;;;0.00;0.00;;;;;;;;;;5045675;28;20222;-76
2022/06/13 13:20:55;;;;;;;0.00;0.00;;;;;;;;;;5044248;28;20202;-76
2022/06/13 13:23:30;;;;;;;0.00;0.00;;;;;;;;;;5044060;28;20260;-77
2022/06/13 13:25:59;;;;;;;0.00;0.00;;;;;;;;;;5043155;28;20225;-78
2022/06/13 13:28:33;;;;;;;0.00;0.00;;;;;;;;;;5047305;28;20202;-77
2022/06/13 13:31:03;;;;;;;0.00;0.00;;;;;;;;;;5043128;28;20290;-78
2022/06/13 13:33:45;;;;;;;0.00;0.00;;;;;;;;;;5045416;28;20294;-77
2022/06/13 13:36:21;;;;;;;0.00;0.00;;;;;;;;;;5053773;28;20571;-77
2022/06/13 13:38:50;;;;;;;0.00;0.00;;;;;;;;;;5037599;28;20516;-78
2022/06/13 13:41:22;;;;;;;0.00;0.00;;;;;;;;;;5053583;28;20597;-77
2022/06/13 13:43:54;;;;;;;0.00;0.00;;;;;;;;;;5050484;28;20206;-77
2022/06/13 13:46:23;;;;;;;0.00;0.00;;;;;;;;;;5037301;28;20231;-79
2022/06/13 13:48:53;;;;;;;0.00;0.00;;;;;;;;;;5040242;28;20203;-77
2022/06/13 13:51:23;;;;;;;0.00;0.00;;;;;;;;;;5053462;28;20218;-77
2022/06/13 13:53:52;;;;;;;0.00;0.00;;;;;;;;;;5039655;28;20200;-77
2022/06/13 13:56:25;;;;;;;0.00;0.00;;;;;;;;;;5040088;28;20489;-78
2022/06/13 13:58:53;;;;;;;0.00;0.00;;;;;;;;;;5036983;28;20591;-78
2022/06/13 14:01:29;;;;;;;0.00;0.00;;;;;;;;;;5039803;28;20230;-79
2022/06/13 14:04:03;;;;;;;0.00;0.00;;;;;;;;;;5047189;28;20202;-76
2022/06/13 14:06:35;;;;;;;0.00;0.00;;;;;;;;;;5040000;28;20236;-78
2022/06/13 14:09:02;;;;;;;0.00;0.00;;;;;;;;;;5033027;28;20377;-79
2022/06/13 14:11:30;;;;;;;0.00;0.00;;;;;;;;;;5057151;28;20265;-77
2022/06/13 14:14:01;;;;;;;0.00;0.00;;;;;;;;;;5053701;28;20192;-79